sensor_id;sensor_type;location;lat;lon;timestamp;pressure;altitude;pressure_sealevel;temperature;humidity
19748;BME280;10032;51.386;12.516;2023-07-13T00:00:23;99852.00;;;22.47;71.92
19748;BME280;10032;51.386;12.516;2023-07-13T00:02:49;99852.69;;;22.44;72.70
19748;BME280;10032;51.386;12.516;2023-07-13T00:05:14;99846.53;;;22.39;72.94
19748;BME280;10032;51.386;12.516;2023-07-13T00:07:40;99850.25;;;22.34;73.11
19748;BME280;10032;51.386;12.516;2023-07-13T00:10:06;99854.03;;;22.30;73.79
19748;BME280;10032;51.386;12.516;2023-07-13T00:12:35;99852.28;;;22.25;73.86
19748;BME280;10032;51.386;12.516;2023-07-13T00:15:04;99868.69;;;22.22;73.89
19748;BME280;10032;51.386;12.516;2023-07-13T00:17:31;99874.56;;;22.20;73.74
19748;BME280;10032;51.386;12.516;2023-07-13T00:19:57;99881.19;;;22.19;74.31
19748;BME280;10032;51.386;12.516;2023-07-13T00:22:24;99889.84;;;22.18;74.19
19748;BME280;10032;51.386;12.516;2023-07-13T00:24:52;99903.28;;;22.19;74.70
19748;BME280;10032;51.386;12.516;2023-07-13T00:27:18;99900.53;;;22.19;74.72
19748;BME280;10032;51.386;12.516;2023-07-13T00:29:43;99897.75;;;22.19;74.76
19748;BME280;10032;51.386;12.516;2023-07-13T00:32:09;99895.00;;;22.19;74.88
19748;BME280;10032;51.386;12.516;2023-07-13T00:34:37;99887.06;;;22.18;74.63
19748;BME280;10032;51.386;12.516;2023-07-13T00:37:02;99905.56;;;22.17;75.24
19748;BME280;10032;51.386;12.516;2023-07-13T00:39:28;99908.66;;;22.16;75.08
19748;BME280;10032;51.386;12.516;2023-07-13T00:41:53;99907.88;;;22.15;74.98
19748;BME280;10032;51.386;12.516;2023-07-13T00:44:20;99908.53;;;22.12;74.51
19748;BME280;10032;51.386;12.516;2023-07-13T00:46:48;99900.44;;;22.07;75.53
19748;BME280;10032;51.386;12.516;2023-07-13T00:49:17;99908.88;;;22.02;75.41
19748;BME280;10032;51.386;12.516;2023-07-13T00:52:08;99915.09;;;21.99;75.46
19748;BME280;10032;51.386;12.516;2023-07-13T00:54:44;99911.81;;;21.97;75.59
19748;BME280;10032;51.386;12.516;2023-07-13T00:57:13;99921.25;;;21.96;75.38
19748;BME280;10032;51.386;12.516;2023-07-13T00:59:42;99921.25;;;21.96;75.89
19748;BME280;10032;51.386;12.516;2023-07-13T01:02:08;99930.34;;;21.97;76.34
19748;BME280;10032;51.386;12.516;2023-07-13T01:04:34;99919.63;;;21.95;77.15
19748;BME280;10032;51.386;12.516;2023-07-13T01:06:59;99930.22;;;21.93;77.42
19748;BME280;10032;51.386;12.516;2023-07-13T01:09:26;99932.63;;;21.86;78.33
19748;BME280;10032;51.386;12.516;2023-07-13T01:11:52;99927.63;;;21.88;78.63
19748;BME280;10032;51.386;12.516;2023-07-13T01:14:17;99924.69;;;21.85;78.00
19748;BME280;10032;51.386;12.516;2023-07-13T01:16:45;99930.56;;;21.83;77.72
19748;BME280;10032;51.386;12.516;2023-07-13T01:19:36;99919.19;;;21.76;77.45
19748;BME280;10032;51.386;12.516;2023-07-13T01:22:08;99933.00;;;21.76;77.14
19748;BME280;10032;51.386;12.516;2023-07-13T01:24:35;99915.97;;;21.74;76.52
19748;BME280;10032;51.386;12.516;2023-07-13T01:27:02;99908.00;;;21.64;76.79
19748;BME280;10032;51.386;12.516;2023-07-13T01:29:27;99913.84;;;21.63;75.71
19748;BME280;10032;51.386;12.516;2023-07-13T01:31:53;99905.56;;;21.63;75.41
19748;BME280;10032;51.386;12.516;2023-07-13T01:34:18;99911.91;;;21.63;75.65
19748;BME280;10032;51.386;12.516;2023-07-13T01:36:43;99911.09;;;21.63;75.17
19748;BME280;10032;51.386;12.516;2023-07-13T01:39:09;99922.13;;;21.63;75.05
19748;BME280;10032;51.386;12.516;2023-07-13T01:41:34;99921.47;;;21.66;74.70
19748;BME280;10032;51.386;12.516;2023-07-13T01:44:00;99924.41;;;21.69;74.57
19748;BME280;10032;51.386;12.516;2023-07-13T01:46:25;99924.88;;;21.71;74.32
19748;BME280;10032;51.386;12.516;2023-07-13T01:48:51;99925.03;;;21.66;74.32
19748;BME280;10032;51.386;12.516;2023-07-13T01:51:18;99912.69;;;21.64;74.41
19748;BME280;10032;51.386;12.516;2023-07-13T01:53:44;99916.13;;;21.69;73.88
19748;BME280;10032;51.386;12.516;2023-07-13T01:56:10;99916.47;;;21.68;74.01
19748;BME280;10032;51.386;12.516;2023-07-13T01:58:35;99917.09;;;21.65;74.17
19748;BME280;10032;51.386;12.516;2023-07-13T02:01:01;99911.91;;;21.63;74.19
19748;BME280;10032;51.386;12.516;2023-07-13T02:03:26;99913.38;;;21.61;73.89
19748;BME280;10032;51.386;12.516;2023-07-13T02:05:51;99916.94;;;21.53;74.24
19748;BME280;10032;51.386;12.516;2023-07-13T02:08:17;99927.81;;;21.49;74.40
19748;BME280;10032;51.386;12.516;2023-07-13T02:10:43;99930.75;;;21.44;74.51
19748;BME280;10032;51.386;12.516;2023-07-13T02:13:08;99946.16;;;21.45;74.40
19748;BME280;10032;51.386;12.516;2023-07-13T02:15:34;99942.44;;;21.41;74.49
19748;BME280;10032;51.386;12.516;2023-07-13T02:17:59;99942.44;;;21.41;74.24
19748;BME280;10032;51.386;12.516;2023-07-13T02:20:25;99933.03;;;21.42;74.06
19748;BME280;10032;51.386;12.516;2023-07-13T02:22:51;99942.09;;;21.43;74.53
19748;BME280;10032;51.386;12.516;2023-07-13T02:25:17;99937.56;;;21.38;74.77
19748;BME280;10032;51.386;12.516;2023-07-13T02:27:42;99927.84;;;21.32;74.95
19748;BME280;10032;51.386;12.516;2023-07-13T02:30:08;99931.06;;;21.34;74.76
19748;BME280;10032;51.386;12.516;2023-07-13T02:32:34;99936.91;;;21.24;75.33
19748;BME280;10032;51.386;12.516;2023-07-13T02:35:00;99939.34;;;21.17;75.64
19748;BME280;10032;51.386;12.516;2023-07-13T02:37:26;99949.91;;;21.15;75.62
19748;BME280;10032;51.386;12.516;2023-07-13T02:39:51;99947.63;;;21.17;76.16
19748;BME280;10032;51.386;12.516;2023-07-13T02:42:16;99943.41;;;21.20;75.71
19748;BME280;10032;51.386;12.516;2023-07-13T02:44:42;99946.00;;;21.16;76.05
19748;BME280;10032;51.386;12.516;2023-07-13T02:47:07;99946.47;;;21.10;76.40
19748;BME280;10032;51.386;12.516;2023-07-13T02:49:32;99942.44;;;21.07;76.31
19748;BME280;10032;51.386;12.516;2023-07-13T02:51:58;99944.03;;;21.08;76.71
19748;BME280;10032;51.386;12.516;2023-07-13T02:54:23;99937.91;;;21.03;76.62
19748;BME280;10032;51.386;12.516;2023-07-13T02:56:49;99940.66;;;21.03;77.02
19748;BME280;10032;51.386;12.516;2023-07-13T02:59:14;99933.03;;;21.00;77.31
19748;BME280;10032;51.386;12.516;2023-07-13T03:01:40;99934.47;;;20.97;77.06
19748;BME280;10032;51.386;12.516;2023-07-13T03:04:05;99933.03;;;20.91;77.17
19748;BME280;10032;51.386;12.516;2023-07-13T03:06:32;99933.81;;;20.83;77.38
19748;BME280;10032;51.386;12.516;2023-07-13T03:08:58;99934.91;;;20.74;77.82
19748;BME280;10032;51.386;12.516;2023-07-13T03:11:25;99932.47;;;20.64;78.14
19748;BME280;10032;51.386;12.516;2023-07-13T03:13:51;99930.66;;;20.59;78.23
19748;BME280;10032;51.386;12.516;2023-07-13T03:16:17;99937.78;;;20.52;78.95
19748;BME280;10032;51.386;12.516;2023-07-13T03:18:42;99935.31;;;20.42;79.77
19748;BME280;10032;51.386;12.516;2023-07-13T03:21:08;99935.81;;;20.35;80.06
19748;BME280;10032;51.386;12.516;2023-07-13T03:23:34;99945.00;;;20.31;80.44
19748;BME280;10032;51.386;12.516;2023-07-13T03:26:05;99947.09;;;20.25;80.88
19748;BME280;10032;51.386;12.516;2023-07-13T03:28:31;99944.47;;;20.20;80.84
19748;BME280;10032;51.386;12.516;2023-07-13T03:31:07;99954.44;;;20.08;81.94
19748;BME280;10032;51.386;12.516;2023-07-13T03:33:32;99964.25;;;20.00;82.45
19748;BME280;10032;51.386;12.516;2023-07-13T03:35:58;99967.63;;;19.97;82.85
19748;BME280;10032;51.386;12.516;2023-07-13T03:38:23;99974.38;;;19.91;83.32
19748;BME280;10032;51.386;12.516;2023-07-13T03:40:49;99973.84;;;19.81;84.21
19748;BME280;10032;51.386;12.516;2023-07-13T03:43:14;99975.66;;;19.85;84.04
19748;BME280;10032;51.386;12.516;2023-07-13T03:45:40;99965.97;;;19.88;84.32
19748;BME280;10032;51.386;12.516;2023-07-13T03:48:05;99970.97;;;19.86;84.28
19748;BME280;10032;51.386;12.516;2023-07-13T03:50:31;99965.72;;;19.76;85.14
19748;BME280;10032;51.386;12.516;2023-07-13T03:53:00;99968.44;;;19.67;85.72
19748;BME280;10032;51.386;12.516;2023-07-13T03:55:25;99978.59;;;19.67;85.37
19748;BME280;10032;51.386;12.516;2023-07-13T03:57:54;99977.69;;;19.71;85.80
19748;BME280;10032;51.386;12.516;2023-07-13T04:00:22;99978.78;;;19.70;86.22
19748;BME280;10032;51.386;12.516;2023-07-13T04:02:48;99986.72;;;19.72;86.45
19748;BME280;10032;51.386;12.516;2023-07-13T04:05:15;99989.66;;;19.75;87.21
19748;BME280;10032;51.386;12.516;2023-07-13T04:07:40;99989.22;;;19.82;86.97
19748;BME280;10032;51.386;12.516;2023-07-13T04:10:06;99988.91;;;19.83;87.11
19748;BME280;10032;51.386;12.516;2023-07-13T04:12:31;99992.16;;;19.85;87.15
19748;BME280;10032;51.386;12.516;2023-07-13T04:14:57;100001.72;;;19.88;87.64
19748;BME280;10032;51.386;12.516;2023-07-13T04:17:22;100009.66;;;19.89;88.27
19748;BME280;10032;51.386;12.516;2023-07-13T04:19:47;100004.16;;;19.89;88.96
19748;BME280;10032;51.386;12.516;2023-07-13T04:22:14;99993.09;;;19.81;90.06
19748;BME280;10032;51.386;12.516;2023-07-13T04:24:39;99989.03;;;19.78;90.51
19748;BME280;10032;51.386;12.516;2023-07-13T04:27:05;99994.53;;;19.78;91.41
19748;BME280;10032;51.386;12.516;2023-07-13T04:29:30;99999.09;;;19.83;91.88
19748;BME280;10032;51.386;12.516;2023-07-13T04:31:55;99998.28;;;19.82;92.12
19748;BME280;10032;51.386;12.516;2023-07-13T04:34:21;99994.72;;;19.82;92.26
19748;BME280;10032;51.386;12.516;2023-07-13T04:36:46;99996.34;;;19.83;92.40
19748;BME280;10032;51.386;12.516;2023-07-13T04:39:12;99995.34;;;19.79;93.20
19748;BME280;10032;51.386;12.516;2023-07-13T04:41:37;99989.72;;;19.84;93.41
19748;BME280;10032;51.386;12.516;2023-07-13T04:44:03;99991.34;;;19.85;93.79
19748;BME280;10032;51.386;12.516;2023-07-13T04:46:28;99987.78;;;19.84;94.28
19748;BME280;10032;51.386;12.516;2023-07-13T04:48:53;99993.78;;;19.86;95.08
19748;BME280;10032;51.386;12.516;2023-07-13T04:51:19;100001.91;;;19.91;94.96
19748;BME280;10032;51.386;12.516;2023-07-13T04:53:45;99999.41;;;20.03;95.17
19748;BME280;10032;51.386;12.516;2023-07-13T04:56:10;100001.75;;;20.18;94.81
19748;BME280;10032;51.386;12.516;2023-07-13T04:58:35;99991.75;;;20.22;94.64
19748;BME280;10032;51.386;12.516;2023-07-13T05:01:05;99997.78;;;20.33;95.29
19748;BME280;10032;51.386;12.516;2023-07-13T05:03:31;99999.94;;;20.44;95.31
19748;BME280;10032;51.386;12.516;2023-07-13T05:05:59;99999.34;;;20.64;94.74
19748;BME280;10032;51.386;12.516;2023-07-13T05:08:25;99997.31;;;20.87;94.64
19748;BME280;10032;51.386;12.516;2023-07-13T05:10:51;100005.66;;;21.12;93.85
19748;BME280;10032;51.386;12.516;2023-07-13T05:13:16;100000.50;;;21.36;93.25
19748;BME280;10032;51.386;12.516;2023-07-13T05:15:42;100002.59;;;21.48;92.56
19748;BME280;10032;51.386;12.516;2023-07-13T05:18:07;99997.56;;;21.75;91.46
19748;BME280;10032;51.386;12.516;2023-07-13T05:20:32;99995.78;;;21.88;90.89
19748;BME280;10032;51.386;12.516;2023-07-13T05:22:58;99996.56;;;22.05;90.36
19748;BME280;10032;51.386;12.516;2023-07-13T05:25:23;100003.28;;;22.33;89.25
19748;BME280;10032;51.386;12.516;2023-07-13T05:27:48;99993.81;;;22.51;87.65
19748;BME280;10032;51.386;12.516;2023-07-13T05:30:14;99990.47;;;22.66;86.60
19748;BME280;10032;51.386;12.516;2023-07-13T05:32:40;100002.31;;;23.04;86.14
19748;BME280;10032;51.386;12.516;2023-07-13T05:35:06;100008.81;;;23.49;85.61
19748;BME280;10032;51.386;12.516;2023-07-13T05:37:32;100007.81;;;23.86;84.39
19748;BME280;10032;51.386;12.516;2023-07-13T05:39:57;100011.91;;;24.21;82.08
19748;BME280;10032;51.386;12.516;2023-07-13T05:42:22;100011.22;;;24.36;79.67
19748;BME280;10032;51.386;12.516;2023-07-13T05:44:48;100010.44;;;24.03;78.37
19748;BME280;10032;51.386;12.516;2023-07-13T05:47:13;100011.50;;;23.78;78.04
19748;BME280;10032;51.386;12.516;2023-07-13T05:49:40;100010.72;;;24.10;78.48
19748;BME280;10032;51.386;12.516;2023-07-13T05:52:06;100012.28;;;24.44;76.79
19748;BME280;10032;51.386;12.516;2023-07-13T05:54:31;100015.22;;;24.83;75.82
19748;BME280;10032;51.386;12.516;2023-07-13T05:56:56;100012.88;;;25.21;75.02
19748;BME280;10032;51.386;12.516;2023-07-13T05:59:22;100016.09;;;25.35;74.60
19748;BME280;10032;51.386;12.516;2023-07-13T06:01:48;100008.38;;;25.68;72.32
19748;BME280;10032;51.386;12.516;2023-07-13T06:04:14;100012.00;;;25.57;71.11
19748;BME280;10032;51.386;12.516;2023-07-13T06:06:39;100012.66;;;25.26;70.55
19748;BME280;10032;51.386;12.516;2023-07-13T06:09:04;100015.78;;;25.25;70.52
19748;BME280;10032;51.386;12.516;2023-07-13T06:11:30;100018.19;;;25.14;68.99
19748;BME280;10032;51.386;12.516;2023-07-13T06:13:55;100018.91;;;24.99;68.32
19748;BME280;10032;51.386;12.516;2023-07-13T06:16:21;100023.72;;;25.14;69.99
19748;BME280;10032;51.386;12.516;2023-07-13T06:18:47;100020.63;;;25.28;69.06
19748;BME280;10032;51.386;12.516;2023-07-13T06:21:14;100028.25;;;25.31;69.44
19748;BME280;10032;51.386;12.516;2023-07-13T06:23:40;100025.78;;;25.41;68.51
19748;BME280;10032;51.386;12.516;2023-07-13T06:26:06;100031.47;;;25.45;68.66
19748;BME280;10032;51.386;12.516;2023-07-13T06:28:32;100023.34;;;25.91;68.22
19748;BME280;10032;51.386;12.516;2023-07-13T06:30:59;100023.94;;;26.12;66.84
19748;BME280;10032;51.386;12.516;2023-07-13T06:33:24;100018.66;;;26.23;65.92
19748;BME280;10032;51.386;12.516;2023-07-13T06:35:50;100016.00;;;26.42;66.29
19748;BME280;10032;51.386;12.516;2023-07-13T06:38:15;100018.78;;;26.57;64.96
19748;BME280;10032;51.386;12.516;2023-07-13T06:40:41;100030.63;;;26.54;64.20
19748;BME280;10032;51.386;12.516;2023-07-13T06:43:06;100031.81;;;26.69;63.25
19748;BME280;10032;51.386;12.516;2023-07-13T06:45:43;100030.72;;;26.89;62.21
19748;BME280;10032;51.386;12.516;2023-07-13T06:48:11;100032.34;;;26.90;60.66
19748;BME280;10032;51.386;12.516;2023-07-13T06:50:36;100036.38;;;26.61;59.73
19748;BME280;10032;51.386;12.516;2023-07-13T06:53:02;100034.94;;;26.67;60.74
19748;BME280;10032;51.386;12.516;2023-07-13T06:55:27;100036.72;;;26.91;60.10
19748;BME280;10032;51.386;12.516;2023-07-13T06:57:52;100042.56;;;27.01;58.42
19748;BME280;10032;51.386;12.516;2023-07-13T07:00:18;100034.00;;;27.25;58.00
19748;BME280;10032;51.386;12.516;2023-07-13T07:02:44;100045.03;;;27.37;55.95
19748;BME280;10032;51.386;12.516;2023-07-13T07:05:09;100046.38;;;27.28;55.23
19748;BME280;10032;51.386;12.516;2023-07-13T07:07:34;100044.69;;;27.23;54.51
19748;BME280;10032;51.386;12.516;2023-07-13T07:10:00;100046.00;;;27.45;54.00
19748;BME280;10032;51.386;12.516;2023-07-13T07:12:25;100043.75;;;27.69;52.76
19748;BME280;10032;51.386;12.516;2023-07-13T07:14:51;100048.06;;;27.67;51.82
19748;BME280;10032;51.386;12.516;2023-07-13T07:17:16;100049.72;;;27.87;50.44
19748;BME280;10032;51.386;12.516;2023-07-13T07:19:41;100051.78;;;27.55;48.69
19748;BME280;10032;51.386;12.516;2023-07-13T07:22:07;100062.72;;;27.64;48.60
19748;BME280;10032;51.386;12.516;2023-07-13T07:24:32;100061.31;;;27.73;47.49
19748;BME280;10032;51.386;12.516;2023-07-13T07:26:58;100059.84;;;27.95;47.94
19748;BME280;10032;51.386;12.516;2023-07-13T07:29:23;100055.50;;;27.97;47.77
19748;BME280;10032;51.386;12.516;2023-07-13T07:31:51;100050.06;;;28.23;47.97
19748;BME280;10032;51.386;12.516;2023-07-13T07:34:17;100050.53;;;27.87;47.56
19748;BME280;10032;51.386;12.516;2023-07-13T07:36:42;100054.22;;;27.76;47.82
19748;BME280;10032;51.386;12.516;2023-07-13T07:39:07;100053.84;;;27.93;48.45
19748;BME280;10032;51.386;12.516;2023-07-13T07:41:33;100066.75;;;27.66;47.89
19748;BME280;10032;51.386;12.516;2023-07-13T07:43:58;100060.22;;;27.24;48.12
19748;BME280;10032;51.386;12.516;2023-07-13T07:46:24;100067.84;;;27.12;48.58
19748;BME280;10032;51.386;12.516;2023-07-13T07:48:49;100065.31;;;27.38;48.74
19748;BME280;10032;51.386;12.516;2023-07-13T07:51:14;100064.59;;;27.41;48.78
19748;BME280;10032;51.386;12.516;2023-07-13T07:53:40;100063.50;;;27.45;48.39
19748;BME280;10032;51.386;12.516;2023-07-13T07:56:05;100069.19;;;27.68;48.32
19748;BME280;10032;51.386;12.516;2023-07-13T07:58:31;100069.13;;;27.49;47.55
19748;BME280;10032;51.386;12.516;2023-07-13T08:01:05;100070.84;;;27.53;47.91
19748;BME280;10032;51.386;12.516;2023-07-13T08:03:31;100074.78;;;27.52;48.38
19748;BME280;10032;51.386;12.516;2023-07-13T08:05:57;100073.78;;;27.26;48.05
19748;BME280;10032;51.386;12.516;2023-07-13T08:08:22;100075.13;;;27.16;48.03
19748;BME280;10032;51.386;12.516;2023-07-13T08:10:47;100065.44;;;27.10;48.37
19748;BME280;10032;51.386;12.516;2023-07-13T08:13:13;100077.56;;;27.02;48.01
19748;BME280;10032;51.386;12.516;2023-07-13T08:15:38;100074.25;;;26.81;48.48
19748;BME280;10032;51.386;12.516;2023-07-13T08:18:04;100076.13;;;26.93;48.87
19748;BME280;10032;51.386;12.516;2023-07-13T08:20:29;100075.31;;;26.92;48.72
19748;BME280;10032;51.386;12.516;2023-07-13T08:22:54;100082.56;;;26.97;49.40
19748;BME280;10032;51.386;12.516;2023-07-13T08:25:20;100079.34;;;27.10;49.86
19748;BME280;10032;51.386;12.516;2023-07-13T08:27:47;100072.81;;;27.18;49.34
19748;BME280;10032;51.386;12.516;2023-07-13T08:30:12;100066.59;;;27.59;49.64
19748;BME280;10032;51.386;12.516;2023-07-13T08:32:38;100059.59;;;28.03;49.39
19748;BME280;10032;51.386;12.516;2023-07-13T08:35:04;100075.44;;;28.37;48.89
19748;BME280;10032;51.386;12.516;2023-07-13T08:37:30;100068.72;;;28.61;48.14
19748;BME280;10032;51.386;12.516;2023-07-13T08:39:55;100067.16;;;28.63;47.16
19748;BME280;10032;51.386;12.516;2023-07-13T08:42:33;100059.34;;;28.72;47.71
19748;BME280;10032;51.386;12.516;2023-07-13T08:47:28;100066.44;;;29.11;46.63
19748;BME280;10032;51.386;12.516;2023-07-13T08:49:56;100069.97;;;29.34;46.08
19748;BME280;10032;51.386;12.516;2023-07-13T08:52:34;100075.06;;;29.55;45.37
19748;BME280;10032;51.386;12.516;2023-07-13T08:55:18;100083.41;;;29.03;44.47
19748;BME280;10032;51.386;12.516;2023-07-13T08:57:59;100068.31;;;29.04;44.21
19748;BME280;10032;51.386;12.516;2023-07-13T09:00:34;100076.78;;;29.37;44.80
19748;BME280;10032;51.386;12.516;2023-07-13T09:03:05;100074.09;;;29.44;43.93
19748;BME280;10032;51.386;12.516;2023-07-13T09:05:41;100072.41;;;28.91;43.06
19748;BME280;10032;51.386;12.516;2023-07-13T09:10:49;100066.22;;;28.78;42.88
19748;BME280;10032;51.386;12.516;2023-07-13T09:15:49;100067.19;;;29.60;42.87
19748;BME280;10032;51.386;12.516;2023-07-13T09:18:22;100069.94;;;29.86;42.40
19748;BME280;10032;51.386;12.516;2023-07-13T09:20:53;100071.22;;;29.92;42.29
19748;BME280;10032;51.386;12.516;2023-07-13T09:23:22;100067.75;;;30.02;42.23
19748;BME280;10032;51.386;12.516;2023-07-13T09:25:52;100076.47;;;30.30;41.99
19748;BME280;10032;51.386;12.516;2023-07-13T09:28:29;100075.44;;;30.45;41.56
19748;BME280;10032;51.386;12.516;2023-07-13T09:31:01;100064.56;;;30.37;40.84
19748;BME280;10032;51.386;12.516;2023-07-13T09:33:28;100065.88;;;29.80;39.59
19748;BME280;10032;51.386;12.516;2023-07-13T09:35:56;100071.25;;;29.40;40.03
19748;BME280;10032;51.386;12.516;2023-07-13T09:38:28;100074.53;;;29.20;40.10
19748;BME280;10032;51.386;12.516;2023-07-13T09:41:26;100070.84;;;29.38;40.48
19748;BME280;10032;51.386;12.516;2023-07-13T09:44:11;100073.72;;;29.45;40.43
19748;BME280;10032;51.386;12.516;2023-07-13T09:46:39;100072.34;;;29.32;39.73
19748;BME280;10032;51.386;12.516;2023-07-13T09:49:05;100083.94;;;29.60;39.88
19748;BME280;10032;51.386;12.516;2023-07-13T09:51:30;100078.06;;;29.98;40.67
19748;BME280;10032;51.386;12.516;2023-07-13T09:53:56;100075.50;;;30.52;40.76
19748;BME280;10032;51.386;12.516;2023-07-13T09:56:26;100078.75;;;30.54;39.60
19748;BME280;10032;51.386;12.516;2023-07-13T09:58:52;100073.00;;;30.40;39.63
19748;BME280;10032;51.386;12.516;2023-07-13T10:01:32;100076.75;;;30.55;39.48
19748;BME280;10032;51.386;12.516;2023-07-13T10:03:58;100080.88;;;30.31;38.74
19748;BME280;10032;51.386;12.516;2023-07-13T10:06:24;100085.41;;;30.10;38.60
19748;BME280;10032;51.386;12.516;2023-07-13T10:08:52;100088.28;;;30.50;38.93
19748;BME280;10032;51.386;12.516;2023-07-13T10:13:55;100082.44;;;29.96;38.20
19748;BME280;10032;51.386;12.516;2023-07-13T10:16:23;100088.88;;;30.00;38.23
19748;BME280;10032;51.386;12.516;2023-07-13T10:18:53;100091.06;;;30.13;37.88
19748;BME280;10032;51.386;12.516;2023-07-13T10:21:21;100089.31;;;30.05;37.81
19748;BME280;10032;51.386;12.516;2023-07-13T10:23:54;100091.06;;;29.54;37.16
19748;BME280;10032;51.386;12.516;2023-07-13T10:26:29;100094.22;;;29.04;37.48
19748;BME280;10032;51.386;12.516;2023-07-13T10:29:00;100095.28;;;28.96;38.58
19748;BME280;10032;51.386;12.516;2023-07-13T10:31:26;100094.47;;;29.44;38.92
19748;BME280;10032;51.386;12.516;2023-07-13T10:33:52;100086.88;;;30.30;38.85
19748;BME280;10032;51.386;12.516;2023-07-13T10:36:28;100093.34;;;30.70;38.68
19748;BME280;10032;51.386;12.516;2023-07-13T10:38:57;100088.41;;;30.60;37.86
19748;BME280;10032;51.386;12.516;2023-07-13T10:41:26;100083.31;;;30.33;38.15
19748;BME280;10032;51.386;12.516;2023-07-13T10:43:54;100089.41;;;30.09;37.59
19748;BME280;10032;51.386;12.516;2023-07-13T10:46:25;100092.00;;;29.65;37.19
19748;BME280;10032;51.386;12.516;2023-07-13T10:49:02;100102.88;;;29.22;37.46
19748;BME280;10032;51.386;12.516;2023-07-13T10:51:30;100089.72;;;29.22;37.99
19748;BME280;10032;51.386;12.516;2023-07-13T10:57:06;100090.09;;;30.02;38.12
19748;BME280;10032;51.386;12.516;2023-07-13T10:59:33;100091.19;;;30.24;37.97
19748;BME280;10032;51.386;12.516;2023-07-13T11:04:29;100079.56;;;30.58;37.68
19748;BME280;10032;51.386;12.516;2023-07-13T11:07:16;100087.06;;;30.84;37.77
19748;BME280;10032;51.386;12.516;2023-07-13T11:09:43;100085.50;;;30.53;36.76
19748;BME280;10032;51.386;12.516;2023-07-13T11:15:02;100097.50;;;29.88;37.47
19748;BME280;10032;51.386;12.516;2023-07-13T11:23:07;100090.84;;;29.99;37.30
19748;BME280;10032;51.386;12.516;2023-07-13T11:25:35;100082.72;;;30.53;37.80
19748;BME280;10032;51.386;12.516;2023-07-13T11:30:38;100073.97;;;30.95;36.98
19748;BME280;10032;51.386;12.516;2023-07-13T11:36:15;100077.97;;;31.44;36.86
19748;BME280;10032;51.386;12.516;2023-07-13T11:38:51;100065.28;;;31.64;36.12
19748;BME280;10032;51.386;12.516;2023-07-13T11:41:27;100060.47;;;31.68;35.65
19748;BME280;10032;51.386;12.516;2023-07-13T11:43:55;100066.63;;;31.23;36.10
19748;BME280;10032;51.386;12.516;2023-07-13T11:46:24;100064.16;;;30.71;35.75
19748;BME280;10032;51.386;12.516;2023-07-13T11:48:51;100065.81;;;30.79;35.65
19748;BME280;10032;51.386;12.516;2023-07-13T11:51:22;100061.78;;;31.20;35.82
19748;BME280;10032;51.386;12.516;2023-07-13T11:53:50;100070.66;;;31.29;35.23
19748;BME280;10032;51.386;12.516;2023-07-13T11:56:17;100070.69;;;31.33;34.82
19748;BME280;10032;51.386;12.516;2023-07-13T11:58:43;100068.06;;;31.10;34.23
19748;BME280;10032;51.386;12.516;2023-07-13T12:01:17;100052.34;;;30.95;34.17
19748;BME280;10032;51.386;12.516;2023-07-13T12:03:45;100068.78;;;30.57;34.62
19748;BME280;10032;51.386;12.516;2023-07-13T12:06:29;100067.22;;;30.59;35.36
19748;BME280;10032;51.386;12.516;2023-07-13T12:08:59;100073.78;;;30.77;35.21
19748;BME280;10032;51.386;12.516;2023-07-13T12:11:26;100055.56;;;30.94;35.12
19748;BME280;10032;51.386;12.516;2023-07-13T12:13:52;100061.41;;;30.78;34.62
19748;BME280;10032;51.386;12.516;2023-07-13T12:16:30;100070.16;;;30.73;35.38
19748;BME280;10032;51.386;12.516;2023-07-13T12:18:59;100069.59;;;30.97;34.93
19748;BME280;10032;51.386;12.516;2023-07-13T12:21:33;100062.22;;;31.22;34.98
19748;BME280;10032;51.386;12.516;2023-07-13T12:24:00;100061.84;;;31.27;34.29
19748;BME280;10032;51.386;12.516;2023-07-13T12:26:28;100062.34;;;31.43;34.52
19748;BME280;10032;51.386;12.516;2023-07-13T12:28:56;100064.16;;;31.79;33.89
19748;BME280;10032;51.386;12.516;2023-07-13T12:34:18;100063.38;;;31.21;33.56
19748;BME280;10032;51.386;12.516;2023-07-13T12:36:53;100053.00;;;31.22;33.23
19748;BME280;10032;51.386;12.516;2023-07-13T12:39:28;100052.59;;;31.23;32.93
19748;BME280;10032;51.386;12.516;2023-07-13T12:44:41;100061.41;;;31.25;33.14
19748;BME280;10032;51.386;12.516;2023-07-13T12:47:12;100062.66;;;31.31;32.32
19748;BME280;10032;51.386;12.516;2023-07-13T12:49:42;100069.63;;;31.04;32.86
19748;BME280;10032;51.386;12.516;2023-07-13T12:52:17;100076.06;;;31.08;32.85
19748;BME280;10032;51.386;12.516;2023-07-13T12:54:53;100072.88;;;31.06;32.04
19748;BME280;10032;51.386;12.516;2023-07-13T12:57:19;100070.50;;;31.12;32.91
19748;BME280;10032;51.386;12.516;2023-07-13T12:59:44;100065.81;;;31.26;32.40
19748;BME280;10032;51.386;12.516;2023-07-13T13:02:33;100062.75;;;31.42;31.88
19748;BME280;10032;51.386;12.516;2023-07-13T13:05:01;100067.63;;;31.59;32.38
19748;BME280;10032;51.386;12.516;2023-07-13T13:07:28;100068.03;;;31.61;32.19
19748;BME280;10032;51.386;12.516;2023-07-13T13:09:54;100066.66;;;31.91;32.17
19748;BME280;10032;51.386;12.516;2023-07-13T13:12:22;100075.81;;;31.88;31.36
19748;BME280;10032;51.386;12.516;2023-07-13T13:14:49;100071.31;;;31.70;32.04
19748;BME280;10032;51.386;12.516;2023-07-13T13:17:23;100072.50;;;31.65;31.19
19748;BME280;10032;51.386;12.516;2023-07-13T13:19:50;100063.78;;;31.84;30.80